createdAt,value
2018-09-23T00:01:39.490Z,101382.91
2018-09-23T00:04:08.153Z,101380.19
2018-09-23T00:06:36.760Z,101369.65
2018-09-23T00:09:07.456Z,101367.14
2018-09-23T00:11:36.036Z,101370.22
2018-09-23T00:14:04.683Z,101369.41
2018-09-23T00:16:33.290Z,101367.16
2018-09-23T00:19:01.919Z,101364.78
2018-09-23T00:21:30.511Z,101368.87
2018-09-23T00:23:59.122Z,101353.24
2018-09-23T00:26:27.721Z,101357.67
2018-09-23T00:28:56.351Z,101357.67
2018-09-23T00:31:24.964Z,101360.59
2018-09-23T00:33:53.593Z,101352.09
2018-09-23T00:36:22.176Z,101342.26
2018-09-23T00:38:50.843Z,101340.42
2018-09-23T00:41:19.439Z,101344.36
2018-09-23T00:43:48.052Z,101342.66
2018-09-23T00:46:16.675Z,101345.08
2018-09-23T00:48:45.286Z,101346.45
2018-09-23T00:51:13.891Z,101344.59
2018-09-23T00:53:42.606Z,101341.55
2018-09-23T00:56:11.215Z,101341.89
2018-09-23T00:58:39.847Z,101347.84
2018-09-23T01:01:10.633Z,101345.28
2018-09-23T01:03:39.255Z,101340.89
2018-09-23T01:06:07.874Z,101341.94
2018-09-23T01:08:36.597Z,101342.28
2018-09-23T01:11:05.198Z,101347.20
2018-09-23T01:13:33.814Z,101344.30
2018-09-23T01:16:02.404Z,101344.80
2018-09-23T01:18:31.025Z,101341.55
2018-09-23T01:20:59.641Z,101347.00
2018-09-23T01:23:28.352Z,101344.59
2018-09-23T01:25:56.956Z,101343.22
2018-09-23T01:28:25.588Z,101332.30
2018-09-23T01:30:54.214Z,101330.91
2018-09-23T01:33:22.857Z,101331.79
2018-09-23T01:35:51.455Z,101328.03
2018-09-23T01:38:20.095Z,101329.91
2018-09-23T01:40:48.727Z,101329.91
2018-09-23T01:43:17.329Z,101327.84
2018-09-23T01:45:46.998Z,101327.84
2018-09-23T01:48:15.594Z,101329.38
2018-09-23T01:50:44.219Z,101337.00
2018-09-23T01:53:12.818Z,101330.17
2018-09-23T01:55:41.435Z,101326.94
2018-09-23T01:58:10.036Z,101326.75
2018-09-23T02:00:38.676Z,101330.50
2018-09-23T02:03:07.327Z,101330.66
2018-09-23T02:05:35.965Z,101320.64
2018-09-23T02:08:04.567Z,101331.38
2018-09-23T02:10:33.197Z,101325.11
2018-09-23T02:13:01.795Z,101321.89
2018-09-23T02:15:30.418Z,101321.75
2018-09-23T02:17:59.018Z,101314.80
2018-09-23T02:20:27.644Z,101316.02
2018-09-23T02:22:56.246Z,101317.73
2018-09-23T02:25:24.876Z,101312.98
2018-09-23T02:27:53.506Z,101301.47
2018-09-23T02:30:22.135Z,101298.41
2018-09-23T02:32:50.759Z,101289.95
2018-09-23T02:35:21.644Z,101295.55
2018-09-23T02:37:50.449Z,101293.88
2018-09-23T02:40:19.070Z,101290.32
2018-09-23T02:42:47.660Z,101292.53
2018-09-23T02:45:16.291Z,101285.42
2018-09-23T02:47:44.934Z,101288.30
2018-09-23T02:50:13.631Z,101292.38
2018-09-23T02:52:42.222Z,101287.64
2018-09-23T02:55:10.866Z,101289.16
2018-09-23T02:57:39.448Z,101288.50
2018-09-23T03:00:08.090Z,101281.50
2018-09-23T03:02:36.695Z,101283.02
2018-09-23T03:05:05.338Z,101269.74
2018-09-23T03:07:33.983Z,101265.48
2018-09-23T03:10:02.618Z,101268.19
2018-09-23T03:12:31.207Z,101276.52
2018-09-23T03:14:59.837Z,101273.63
2018-09-23T03:17:28.443Z,101278.73
2018-09-23T03:19:57.110Z,101287.73
2018-09-23T03:22:25.706Z,101276.00
2018-09-23T03:24:54.341Z,101274.44
2018-09-23T03:27:22.951Z,101265.93
2018-09-23T03:29:51.576Z,101258.59
2018-09-23T03:32:20.195Z,101266.27
2018-09-23T03:34:48.806Z,101262.67
2018-09-23T03:37:17.409Z,101263.03
2018-09-23T03:39:46.063Z,101261.81
2018-09-23T03:42:15.089Z,101258.95
2018-09-23T03:44:43.707Z,101254.52
2018-09-23T03:47:12.334Z,101251.63
2018-09-23T03:49:40.992Z,101250.79
2018-09-23T03:52:09.618Z,101239.07
2018-09-23T03:54:38.225Z,101242.63
2018-09-23T03:57:06.856Z,101238.19
2018-09-23T03:59:35.455Z,101227.70
2018-09-23T04:02:04.107Z,101223.13
2018-09-23T04:04:32.686Z,101221.08
2018-09-23T04:07:01.335Z,101227.03
2018-09-23T04:09:29.937Z,101222.63
2018-09-23T04:11:58.575Z,101224.31
2018-09-23T04:14:27.178Z,101224.98
2018-09-23T04:16:55.786Z,101220.42
2018-09-23T04:19:24.382Z,101221.28
2018-09-23T04:21:53.009Z,101227.09
2018-09-23T04:24:21.633Z,101224.88
2018-09-23T04:26:50.255Z,101233.91
2018-09-23T04:29:18.852Z,101229.13
2018-09-23T04:31:47.575Z,101224.38
2018-09-23T04:34:16.182Z,101223.02
2018-09-23T04:36:44.815Z,101213.68
2018-09-23T04:39:13.464Z,101209.97
2018-09-23T04:41:42.079Z,101200.31
2018-09-23T04:44:10.765Z,101203.58
2018-09-23T04:46:39.406Z,101208.88
2018-09-23T04:49:08.011Z,101202.95
2018-09-23T04:51:36.634Z,101198.22
2018-09-23T04:54:05.245Z,101200.95
2018-09-23T04:56:33.857Z,101193.34
2018-09-23T04:59:02.454Z,101195.72
2018-09-23T05:01:31.093Z,101189.45
2018-09-23T05:03:59.685Z,101193.88
2018-09-23T05:06:28.313Z,101189.12
2018-09-23T05:08:56.910Z,101195.73
2018-09-23T05:11:25.535Z,101199.47
2018-09-23T05:13:54.204Z,101190.81
2018-09-23T05:16:22.930Z,101199.29
2018-09-23T05:18:51.511Z,101184.19
2018-09-23T05:21:20.136Z,101192.69
2018-09-23T05:23:48.733Z,101194.55
2018-09-23T05:26:17.357Z,101206.94
2018-09-23T05:28:45.946Z,101211.01
2018-09-23T05:31:14.574Z,101200.48
2018-09-23T05:33:43.198Z,101190.13
2018-09-23T05:36:11.816Z,101194.88
2018-09-23T05:38:40.406Z,101190.62
2018-09-23T05:41:09.017Z,101194.30
2018-09-23T05:43:37.662Z,101203.95
2018-09-23T05:46:06.677Z,101203.42
2018-09-23T05:48:35.265Z,101195.95
2018-09-23T05:51:03.914Z,101195.92
2018-09-23T05:53:32.537Z,101195.04
2018-09-23T05:56:01.146Z,101197.20
2018-09-23T05:58:29.772Z,101203.63
2018-09-23T06:00:58.428Z,101189.14
2018-09-23T06:03:27.056Z,101189.16
2018-09-23T06:05:55.660Z,101190.14
2018-09-23T06:08:24.279Z,101184.80
2018-09-23T06:10:52.887Z,101184.95
2018-09-23T06:13:21.572Z,101186.44
2018-09-23T06:15:50.175Z,101192.86
2018-09-23T06:18:18.781Z,101201.12
2018-09-23T06:20:47.432Z,101206.83
2018-09-23T06:23:16.033Z,101200.47
2018-09-23T06:25:44.642Z,101203.84
2018-09-23T06:28:13.351Z,101202.80
2018-09-23T06:30:41.955Z,101203.05
2018-09-23T06:33:10.591Z,101201.80
2018-09-23T06:35:39.180Z,101201.40
2018-09-23T06:38:07.806Z,101193.34
2018-09-23T06:40:36.399Z,101190.38
2018-09-23T06:43:05.128Z,101192.38
2018-09-23T06:45:33.744Z,101189.80
2018-09-23T06:48:02.360Z,101189.14
2018-09-23T06:50:30.972Z,101193.61
2018-09-23T06:52:59.586Z,101190.39
2018-09-23T06:55:28.231Z,101187.25
2018-09-23T06:57:56.902Z,101191.30
2018-09-23T07:00:25.508Z,101192.75
2018-09-23T07:02:54.163Z,101196.36
2018-09-23T07:05:22.832Z,101187.41
2018-09-23T07:07:51.534Z,101179.75
2018-09-23T07:10:20.169Z,101180.31
2018-09-23T07:12:48.862Z,101173.48
2018-09-23T07:15:17.468Z,101172.57
2018-09-23T07:17:46.161Z,101175.23
2018-09-23T07:20:14.787Z,101183.88
2018-09-23T07:22:43.723Z,101185.31
2018-09-23T07:25:12.343Z,101185.17
2018-09-23T07:27:40.983Z,101182.81
2018-09-23T07:30:09.644Z,101170.81
2018-09-23T07:32:38.281Z,101176.47
2018-09-23T07:35:07.006Z,101170.38
2018-09-23T07:37:35.718Z,101161.25
2018-09-23T07:40:04.456Z,101157.11
2018-09-23T07:42:33.067Z,101153.76
2018-09-23T07:45:01.716Z,101147.23
2018-09-23T07:47:30.353Z,101146.77
2018-09-23T07:49:58.997Z,101159.02
2018-09-23T07:52:27.614Z,101165.43
2018-09-23T07:54:56.247Z,101158.59
2018-09-23T07:57:24.889Z,101158.86
2018-09-23T07:59:53.508Z,101172.55
2018-09-23T08:02:22.112Z,101169.84
2018-09-23T08:04:50.796Z,101171.78
2018-09-23T08:07:19.428Z,101170.62
2018-09-23T08:09:48.051Z,101161.88
2018-09-23T08:12:16.692Z,101172.24
2018-09-23T08:14:45.677Z,101176.84
2018-09-23T08:17:14.021Z,101167.91
2018-09-23T08:19:42.814Z,101165.77
2018-09-23T08:22:11.283Z,101155.47
2018-09-23T08:24:39.915Z,101141.37
2018-09-23T08:27:08.526Z,101139.25
2018-09-23T08:29:37.141Z,101141.48
2018-09-23T08:32:05.802Z,101140.98
2018-09-23T08:34:34.430Z,101140.89
2018-09-23T08:37:03.026Z,101134.48
2018-09-23T08:39:31.669Z,101129.73
2018-09-23T08:42:00.300Z,101122.85
2018-09-23T08:44:28.917Z,101122.73
2018-09-23T08:46:57.536Z,101118.01
2018-09-23T08:49:26.165Z,101113.78
2018-09-23T08:51:54.804Z,101116.10
2018-09-23T08:54:23.489Z,101116.72
2018-09-23T08:56:52.103Z,101119.98
2018-09-23T08:59:20.810Z,101119.88
2018-09-23T09:01:49.408Z,101126.73
2018-09-23T09:04:18.082Z,101118.20
2018-09-23T09:06:46.680Z,101121.35
2018-09-23T09:09:15.303Z,101114.92
2018-09-23T09:11:43.920Z,101113.95
2018-09-23T09:14:12.563Z,101117.55
2018-09-23T09:16:41.171Z,101116.34
2018-09-23T09:19:09.792Z,101115.80
2018-09-23T09:21:38.385Z,101106.74
2018-09-23T09:24:07.026Z,101102.09
2018-09-23T09:26:35.664Z,101097.57
2018-09-23T09:29:04.266Z,101096.73
2018-09-23T09:31:33.019Z,101088.59
2018-09-23T09:34:01.653Z,101083.63
2018-09-23T09:36:30.261Z,101076.64
2018-09-23T09:38:58.908Z,101074.92
2018-09-23T09:41:27.536Z,101073.61
2018-09-23T09:43:56.323Z,101076.88
2018-09-23T09:46:24.882Z,101076.63
2018-09-23T09:48:53.512Z,101068.77
2018-09-23T09:51:22.111Z,101063.89
2018-09-23T09:53:50.725Z,101058.81
2018-09-23T09:56:19.335Z,101053.20
2018-09-23T09:58:47.959Z,101041.13
2018-09-23T10:01:16.563Z,101041.30
2018-09-23T10:03:45.236Z,101029.69
2018-09-23T10:06:13.917Z,101027.47
2018-09-23T10:08:42.512Z,101023.02
2018-09-23T10:11:11.168Z,101027.14
2018-09-23T10:13:39.771Z,101023.45
2018-09-23T10:16:08.421Z,101025.09
2018-09-23T10:18:37.091Z,101016.95
2018-09-23T10:21:05.750Z,101017.46
2018-09-23T10:23:34.486Z,101017.50
2018-09-23T10:26:03.074Z,101019.83
2018-09-23T10:28:31.673Z,101011.95
2018-09-23T10:31:00.373Z,101002.11
2018-09-23T10:33:28.968Z,100998.97
2018-09-23T10:35:57.622Z,100994.47
2018-09-23T10:38:26.264Z,100989.75
2018-09-23T10:40:54.907Z,100987.84
2018-09-23T10:43:23.499Z,100989.12
2018-09-23T10:45:52.238Z,100983.63
2018-09-23T10:48:20.913Z,100988.30
2018-09-23T10:50:49.739Z,100981.81
2018-09-23T10:53:18.331Z,100975.19
2018-09-23T10:55:47.010Z,100974.20
2018-09-23T10:58:15.631Z,100975.13
2018-09-23T11:00:45.015Z,100982.05
2018-09-23T11:03:14.263Z,100983.72
2018-09-23T11:05:43.760Z,100985.05
2018-09-23T11:08:13.912Z,100992.98
2018-09-23T11:10:44.163Z,100983.80
2018-09-23T11:13:13.531Z,100985.65
2018-09-23T11:15:43.190Z,100990.75
2018-09-23T11:18:13.092Z,100986.66
2018-09-23T11:20:42.933Z,100995.53
2018-09-23T11:23:13.027Z,100985.13
2018-09-23T11:25:43.067Z,100986.46
2018-09-23T11:28:13.205Z,100978.23
2018-09-23T11:30:41.910Z,100980.44
2018-09-23T11:33:10.514Z,100972.64
2018-09-23T11:35:39.121Z,100972.84
2018-09-23T11:38:14.062Z,100954.16
2018-09-23T11:40:42.647Z,100959.83
2018-09-23T11:43:11.273Z,100948.11
2018-09-23T11:45:39.886Z,100941.65
2018-09-23T11:48:08.487Z,100936.76
2018-09-23T11:50:37.103Z,100920.41
2018-09-23T11:53:05.826Z,100901.87
2018-09-23T11:55:34.427Z,100884.58
2018-09-23T11:58:03.026Z,100883.95
2018-09-23T12:00:31.598Z,100882.88
2018-09-23T12:03:00.272Z,100884.03
2018-09-23T12:05:28.871Z,100873.31
2018-09-23T12:07:57.486Z,100875.68
2018-09-23T12:10:26.118Z,100866.12
2018-09-23T12:12:54.717Z,100862.15
2018-09-23T12:15:23.294Z,100857.98
2018-09-23T12:17:51.944Z,100852.45
2018-09-23T12:20:20.561Z,100848.62
2018-09-23T12:22:49.268Z,100848.62
2018-09-23T12:25:17.885Z,100848.17
2018-09-23T12:27:46.682Z,100866.38
2018-09-23T12:30:15.283Z,100857.64
2018-09-23T12:32:43.912Z,100842.59
2018-09-23T12:35:12.527Z,100849.27
2018-09-23T12:37:41.122Z,100861.94
2018-09-23T12:40:09.782Z,100867.43
2018-09-23T12:42:38.442Z,100863.76
2018-09-23T12:45:07.134Z,100872.53
2018-09-23T12:47:35.717Z,100862.67
2018-09-23T12:50:04.470Z,100853.61
2018-09-23T12:52:33.062Z,100847.88
2018-09-23T12:55:01.660Z,100853.23
2018-09-23T12:57:30.263Z,100869.92
2018-09-23T12:59:58.885Z,100861.69
2018-09-23T13:02:27.508Z,100859.45
2018-09-23T13:04:56.121Z,100822.73
2018-09-23T13:07:24.717Z,100821.78
2018-09-23T13:09:53.391Z,100824.96
2018-09-23T13:12:21.990Z,100817.87
2018-09-23T13:14:50.683Z,100806.98
2018-09-23T13:17:27.288Z,100824.52
2018-09-23T13:19:55.912Z,100824.66
2018-09-23T13:22:24.515Z,100808.78
2018-09-23T13:24:53.113Z,100810.50
2018-09-23T13:27:21.726Z,100809.31
2018-09-23T13:29:50.352Z,100788.81
2018-09-23T13:32:18.958Z,100763.74
2018-09-23T13:34:47.556Z,100735.59
2018-09-23T13:37:16.188Z,100735.34
2018-09-23T13:39:44.770Z,100734.95
2018-09-23T13:42:13.408Z,100734.39
2018-09-23T13:44:42.005Z,100763.30
2018-09-23T13:47:10.610Z,100773.03
2018-09-23T13:49:39.261Z,100749.47
2018-09-23T13:52:07.875Z,100721.13
2018-09-23T13:54:36.455Z,100721.87
2018-09-23T13:57:05.071Z,100696.08
2018-09-23T13:59:33.663Z,100693.47
2018-09-23T14:02:02.288Z,100691.23
2018-09-23T14:04:30.881Z,100701.69
2018-09-23T14:06:59.499Z,100709.58
2018-09-23T14:09:28.112Z,100716.96
2018-09-23T14:11:56.821Z,100734.67
2018-09-23T14:14:25.431Z,100740.61
2018-09-23T14:16:54.057Z,100720.80
2018-09-23T14:19:22.664Z,100727.05
2018-09-23T14:21:51.291Z,100729.45
2018-09-23T14:24:19.890Z,100734.09
2018-09-23T14:26:48.494Z,100728.41
2018-09-23T14:29:17.116Z,100718.59
2018-09-23T14:31:45.734Z,100701.36
2018-09-23T14:34:14.349Z,100709.94
2018-09-23T14:36:42.946Z,100694.53
2018-09-23T14:39:12.231Z,100664.24
2018-09-23T14:41:41.315Z,100659.16
2018-09-23T14:44:09.951Z,100663.03
2018-09-23T14:46:38.533Z,100666.94
2018-09-23T14:49:07.136Z,100673.71
2018-09-23T14:51:35.748Z,100693.48
2018-09-23T14:54:04.389Z,100673.16
2018-09-23T14:56:32.989Z,100644.67
2018-09-23T14:59:01.690Z,100668.13
2018-09-23T15:01:30.317Z,100662.55
2018-09-23T15:03:58.934Z,100669.79
2018-09-23T15:06:27.578Z,100645.61
2018-09-23T15:08:56.189Z,100635.38
2018-09-23T15:11:24.803Z,100665.50
2018-09-23T15:13:53.512Z,100663.97
2018-09-23T15:16:22.062Z,100635.14
2018-09-23T15:18:50.676Z,100635.35
2018-09-23T15:21:19.341Z,100630.70
2018-09-23T15:23:47.924Z,100634.42
2018-09-23T15:26:16.552Z,100651.52
2018-09-23T15:28:45.140Z,100655.53
2018-09-23T15:31:13.747Z,100670.96
2018-09-23T15:33:42.355Z,100694.58
2018-09-23T15:36:10.973Z,100705.45
2018-09-23T15:38:39.608Z,100691.43
2018-09-23T15:41:08.517Z,100668.92
2018-09-23T15:43:37.425Z,100659.04
2018-09-23T15:46:06.067Z,100642.61
2018-09-23T15:48:34.788Z,100653.86
2018-09-23T15:51:03.598Z,100643.34
2018-09-23T15:53:32.261Z,100642.71
2018-09-23T15:56:00.937Z,100653.77
2018-09-23T15:58:29.973Z,100665.48
2018-09-23T16:00:58.663Z,100658.23
2018-09-23T16:03:27.331Z,100659.70
2018-09-23T16:05:56.029Z,100664.14
2018-09-23T16:08:24.685Z,100665.83
2018-09-23T16:10:53.382Z,100660.61
2018-09-23T16:13:22.042Z,100662.34
2018-09-23T16:15:51.586Z,100662.36
2018-09-23T16:18:20.273Z,100657.31
2018-09-23T16:20:48.965Z,100656.06
2018-09-23T16:23:17.621Z,100672.48
2018-09-23T16:25:46.316Z,100677.55
2018-09-23T16:28:15.019Z,100663.76
2018-09-23T16:30:43.714Z,100667.75
2018-09-23T16:33:12.447Z,100667.87
2018-09-23T16:35:41.133Z,100679.27
2018-09-23T16:38:09.899Z,100683.39
2018-09-23T16:40:38.587Z,100687.39
2018-09-23T16:43:07.260Z,100677.21
2018-09-23T16:45:42.377Z,100679.95
2018-09-23T16:48:11.035Z,100670.49
2018-09-23T16:50:39.724Z,100679.53
2018-09-23T16:53:08.397Z,100677.75
2018-09-23T16:55:37.091Z,100684.50
2018-09-23T16:58:05.811Z,100664.84
2018-09-23T17:00:34.573Z,100687.23
2018-09-23T17:03:03.224Z,100697.73
2018-09-23T17:05:31.925Z,100709.30
2018-09-23T17:08:00.604Z,100716.64
2018-09-23T17:10:29.341Z,100720.42
2018-09-23T17:12:58.002Z,100726.29
2018-09-23T17:15:26.718Z,100730.90
2018-09-23T17:17:55.385Z,100738.23
2018-09-23T17:20:24.066Z,100735.23
2018-09-23T17:22:52.897Z,100746.37
2018-09-23T17:25:21.769Z,100748.36
2018-09-23T17:27:50.635Z,100752.55
2018-09-23T17:30:19.376Z,100771.41
2018-09-23T17:32:48.097Z,100769.92
2018-09-23T17:35:16.881Z,100779.56
2018-09-23T17:37:45.566Z,100783.93
2018-09-23T17:40:14.234Z,100784.67
2018-09-23T17:42:42.925Z,100786.34
2018-09-23T17:45:11.595Z,100784.33
2018-09-23T17:47:40.300Z,100791.37
2018-09-23T17:50:09.155Z,100798.38
2018-09-23T17:52:37.879Z,100797.22
2018-09-23T17:55:06.588Z,100798.28
2018-09-23T17:57:35.274Z,100798.28
2018-09-23T18:00:03.995Z,100808.01
2018-09-23T18:02:32.696Z,100802.98
2018-09-23T18:05:01.349Z,100798.94
2018-09-23T18:07:30.040Z,100799.81
2018-09-23T18:09:58.721Z,100805.98
2018-09-23T18:12:27.416Z,100806.50
2018-09-23T18:14:56.077Z,100815.21
2018-09-23T18:17:24.763Z,100820.84
2018-09-23T18:19:53.422Z,100824.19
2018-09-23T18:22:22.108Z,100831.22
2018-09-23T18:24:50.804Z,100844.91
2018-09-23T18:27:19.485Z,100848.77
2018-09-23T18:29:48.740Z,100859.75
2018-09-23T18:32:17.483Z,100859.17
2018-09-23T18:34:46.149Z,100867.73
2018-09-23T18:37:14.887Z,100873.27
2018-09-23T18:39:43.557Z,100875.89
2018-09-23T18:42:12.251Z,100871.80
2018-09-23T18:44:40.908Z,100872.30
2018-09-23T18:47:09.597Z,100873.02
2018-09-23T18:49:38.282Z,100871.66
2018-09-23T18:52:06.963Z,100885.92
2018-09-23T18:54:40.694Z,100894.45
2018-09-23T18:57:09.384Z,100907.24
2018-09-23T18:59:38.028Z,100903.64
2018-09-23T19:02:06.728Z,100905.42
2018-09-23T19:04:35.389Z,100913.61
2018-09-23T19:07:04.405Z,100914.13
2018-09-23T19:09:33.056Z,100924.05
2018-09-23T19:12:01.753Z,100920.28
2018-09-23T19:14:30.408Z,100930.03
2018-09-23T19:16:59.115Z,100925.42
2018-09-23T19:19:32.947Z,100931.19
2018-09-23T19:22:04.452Z,100930.88
2018-09-23T19:24:33.167Z,100933.59
2018-09-23T19:27:01.984Z,100932.77
2018-09-23T19:29:30.720Z,100939.30
2018-09-23T19:31:59.391Z,100948.20
2018-09-23T19:34:28.157Z,100945.27
2018-09-23T19:36:56.804Z,100955.33
2018-09-23T19:39:25.481Z,100953.66
2018-09-23T19:41:54.154Z,100958.13
2018-09-23T19:44:22.836Z,100975.64
2018-09-23T19:46:51.495Z,100975.49
2018-09-23T19:49:20.263Z,100978.22
2018-09-23T19:51:48.913Z,100979.27
2018-09-23T19:54:17.606Z,100985.56
2018-09-23T19:56:46.264Z,100981.81
2018-09-23T19:59:14.954Z,100992.52
2018-09-23T20:01:43.607Z,100990.63
2018-09-23T20:04:12.286Z,100989.58
2018-09-23T20:06:41.055Z,100996.69
2018-09-23T20:09:10.615Z,101008.63
2018-09-23T20:11:39.308Z,101014.78
2018-09-23T20:14:08.036Z,101021.80
2018-09-23T20:16:36.689Z,101021.80
2018-09-23T20:19:05.686Z,101024.23
2018-09-23T20:21:34.509Z,101036.88
2018-09-23T20:24:03.196Z,101042.69
2018-09-23T20:26:31.886Z,101055.84
2018-09-23T20:29:00.574Z,101061.04
2018-09-23T20:31:29.255Z,101063.13
2018-09-23T20:33:58.042Z,101064.03
2018-09-23T20:36:26.697Z,101068.48
2018-09-23T20:38:55.532Z,101077.36
2018-09-23T20:41:24.233Z,101083.91
2018-09-23T20:43:53.001Z,101083.76
2018-09-23T20:46:21.665Z,101096.74
2018-09-23T20:48:50.373Z,101104.77
2018-09-23T20:51:19.048Z,101103.25
2018-09-23T20:53:47.806Z,101101.89
2018-09-23T20:56:16.460Z,101108.70
2018-09-23T20:58:45.140Z,101119.85
2018-09-23T21:01:13.799Z,101122.42
2018-09-23T21:03:42.500Z,101127.72
2018-09-23T21:06:11.241Z,101135.20
2018-09-23T21:08:39.928Z,101136.09
2018-09-23T21:11:08.588Z,101144.95
2018-09-23T21:13:37.294Z,101145.30
2018-09-23T21:16:06.003Z,101153.28
2018-09-23T21:18:34.713Z,101155.05
2018-09-23T21:21:03.384Z,101161.86
2018-09-23T21:23:32.060Z,101164.91
2018-09-23T21:26:00.725Z,101177.36
2018-09-23T21:28:29.373Z,101181.86
2018-09-23T21:30:58.072Z,101180.81
2018-09-23T21:33:26.740Z,101185.62
2018-09-23T21:35:55.433Z,101190.39
2018-09-23T21:38:24.119Z,101189.03
2018-09-23T21:40:52.808Z,101192.39
2018-09-23T21:43:21.460Z,101197.95
2018-09-23T21:45:50.161Z,101200.72
2018-09-23T21:48:18.827Z,101206.84
2018-09-23T21:50:47.515Z,101209.77
2018-09-23T21:53:16.195Z,101218.22
2018-09-23T21:55:44.937Z,101218.73
2018-09-23T21:58:13.602Z,101224.70
2018-09-23T22:00:42.877Z,101236.80
2018-09-23T22:03:12.565Z,101243.12
2018-09-23T22:05:41.345Z,101237.34
2018-09-23T22:08:10.809Z,101250.80
2018-09-23T22:10:39.499Z,101259.09
2018-09-23T22:13:08.370Z,101257.93
2018-09-23T22:15:37.068Z,101257.77
2018-09-23T22:18:05.750Z,101256.95
2018-09-23T22:20:34.421Z,101267.16
2018-09-23T22:23:03.078Z,101272.99
2018-09-23T22:25:31.780Z,101264.47
2018-09-23T22:28:00.447Z,101269.27
2018-09-23T22:30:29.141Z,101272.12
2018-09-23T22:32:57.807Z,101279.31
2018-09-23T22:35:26.488Z,101285.95
2018-09-23T22:37:55.137Z,101295.13
2018-09-23T22:40:23.809Z,101300.70
2018-09-23T22:42:52.458Z,101301.27
2018-09-23T22:45:21.147Z,101305.70
2018-09-23T22:47:49.799Z,101308.09
2018-09-23T22:50:18.483Z,101322.39
2018-09-23T22:52:47.191Z,101327.34
2018-09-23T22:55:16.052Z,101322.77
2018-09-23T22:57:44.706Z,101323.58
2018-09-23T23:00:13.401Z,101332.94
2018-09-23T23:02:42.066Z,101334.63
2018-09-23T23:05:10.765Z,101330.91
2018-09-23T23:07:39.433Z,101335.68
2018-09-23T23:10:08.143Z,101340.81
2018-09-23T23:12:36.803Z,101347.10
2018-09-23T23:15:05.660Z,101361.72
2018-09-23T23:17:34.304Z,101364.45
2018-09-23T23:20:03.008Z,101366.19
2018-09-23T23:22:31.688Z,101372.27
2018-09-23T23:25:00.394Z,101369.69
2018-09-23T23:27:29.048Z,101377.05
2018-09-23T23:29:57.752Z,101372.81
2018-09-23T23:32:26.427Z,101377.05
2018-09-23T23:34:55.084Z,101380.13
2018-09-23T23:37:23.843Z,101377.06
2018-09-23T23:39:52.520Z,101385.08
2018-09-23T23:42:21.216Z,101395.97
2018-09-23T23:44:50.043Z,101391.52
2018-09-23T23:47:18.751Z,101399.02
2018-09-23T23:49:47.450Z,101408.38
2018-09-23T23:52:16.147Z,101414.84
2018-09-23T23:54:44.816Z,101428.27
2018-09-23T23:57:13.507Z,101431.17
2018-09-23T23:59:42.171Z,101439.12
